Bryce Canyon Natl Park, Utah
Current Conditions -  °F | °C
As of 6:53 AM on Monday 24 Nov 2014 (Local Time) from KBCE Reporting Station
Clear Clear  
Wind Chill:   Ceiling: Unl
Heat Index:   Visibility: 10mi
Dew Point:   Wind: 0mph
Humidity: 83%   Direction: NA
Pressure: 30.23"   Gusts: NA
Location:  37.58°N, 112.17°W
Report Text: KBCE 241353Z AUTO 00000KT 10SM CLR M14/M17 A3023 RMK AO2 SLP278 T11441167
Loading
Personal Weather Stations






























Interactive Weather Map New forecast layout! Learn more

10-Day Weather Forecast

Advertisements
Track Severe Weather on mobile